Gilgit Weather



Gilgit's Current Weather

Temprature 2.72o overcast clouds

overcast clouds

Rain: 0 %

Min Temprature2.72o
Max Temprature2.72o
Humidity54
Wind Speed4.52 m/h
Sun Rise06:11:20
Sun Set17:24:23
Current Time: 18-Oct-2019 15:50:24
Lat/Lon: 35.92, 74.31




Gilgit's Geo Location



Gilgit's Weather Forecast

Time Overall Temp Min Temp Max Temp Humidity Wind Speed Rain
18-Oct-2019 (Fri)
17:00:00 light snow 0.690 0.690 2.720 54 4.52 m/h 0 %
20:00:00 overcast clouds -0.090 -0.090 1.430 61 3.04 m/h 0 %
23:00:00 overcast clouds -0.710 -0.710 0.308 67 1.79 m/h 0 %
19-Oct-2019 (Sat)
02:00:00 overcast clouds -0.690 -0.690 -0.182 67 1.8 m/h 0 %
05:00:00 overcast clouds -0.477 -0.477 -0.477 65 1.49 m/h 0 %
08:00:00 overcast clouds 0.481 0.481 0.481 56 1.32 m/h 0 %
11:00:00 broken clouds 3.530 3.530 3.530 36 1.91 m/h 0 %
14:00:00 scattered clouds 5.076 5.076 5.076 26 2.6 m/h 0 %
17:00:00 broken clouds 4.072 4.072 4.072 29 2.49 m/h 0 %
20:00:00 broken clouds 1.898 1.898 1.898 43 2.85 m/h 0 %
23:00:00 scattered clouds 0.707 0.707 0.707 49 1.89 m/h 0 %
20-Oct-2019 (Sun)
02:00:00 clear sky -0.323 -0.323 -0.323 54 1.18 m/h 0 %
05:00:00 clear sky -1.276 -1.276 -1.276 60 0.75 m/h 0 %
08:00:00 clear sky 0.632 0.632 0.632 51 1.05 m/h 0 %
11:00:00 clear sky 3.360 3.360 3.360 40 1.92 m/h 0 %
14:00:00 light snow 4.852 4.852 4.852 33 2.28 m/h 0 %
17:00:00 light snow 4.278 4.278 4.278 28 2.66 m/h 0 %
20:00:00 broken clouds 2.102 2.102 2.102 44 2.15 m/h 0 %
23:00:00 broken clouds 2.047 2.047 2.047 47 2.36 m/h 0 %
21-Oct-2019 (Mon)
02:00:00 overcast clouds 0.970 0.970 0.970 52 2.47 m/h 0 %
05:00:00 overcast clouds -0.459 -0.459 -0.459 62 2.56 m/h 0 %
08:00:00 few clouds 1.149 1.149 1.149 42 2.2 m/h 0 %
11:00:00 few clouds 3.727 3.727 3.727 33 3 m/h 0 %
14:00:00 overcast clouds 4.615 4.615 4.615 28 3.55 m/h 0 %
17:00:00 overcast clouds 3.634 3.634 3.634 33 3.2 m/h 0 %
20:00:00 scattered clouds 1.844 1.844 1.844 44 2.63 m/h 0 %
23:00:00 broken clouds 0.950 0.950 0.950 51 2.97 m/h 0 %
22-Oct-2019 (Tue)
02:00:00 broken clouds -0.224 -0.224 -0.224 58 3.12 m/h 0 %
05:00:00 broken clouds -1.141 -1.141 -1.141 61 2.88 m/h 0 %
08:00:00 broken clouds 0.652 0.652 0.652 46 2.09 m/h 0 %
11:00:00 broken clouds 3.119 3.119 3.119 35 2.74 m/h 0 %
14:00:00 overcast clouds 4.469 4.469 4.469 31 3.52 m/h 0 %
17:00:00 overcast clouds 3.142 3.142 3.142 40 3.81 m/h 0 %
20:00:00 light snow 1.150 1.150 1.150 60 3.32 m/h 0 %
23:00:00 light snow 0.339 0.339 0.339 62 2.71 m/h 0 %
23-Oct-2019 (Wed)
02:00:00 light snow -0.354 -0.354 -0.354 60 3.09 m/h 0 %
05:00:00 light snow -1.423 -1.423 -1.423 72 3.47 m/h 0 %
08:00:00 overcast clouds -0.591 -0.591 -0.591 61 2.58 m/h 0 %
11:00:00 light snow 0.715 0.715 0.715 58 2.31 m/h 0 %
14:00:00 light snow 1.049 1.049 1.049 62 3.16 m/h 0 %

Famous Cities (61)